sensor_id;sensor_type;location;lat;lon;timestamp;temperature;humidity
20670;DHT22;10494;50.868;4.180;2022-10-16T00:01:24;14.30;99.90
20670;DHT22;10494;50.868;4.180;2022-10-16T00:03:50;14.30;99.90
20670;DHT22;10494;50.868;4.180;2022-10-16T00:06:18;14.20;99.90
20670;DHT22;10494;50.868;4.180;2022-10-16T00:08:44;14.20;99.90
20670;DHT22;10494;50.868;4.180;2022-10-16T00:11:16;14.20;99.90
20670;DHT22;10494;50.868;4.180;2022-10-16T00:13:43;14.20;99.90
20670;DHT22;10494;50.868;4.180;2022-10-16T00:16:10;14.20;99.90
20670;DHT22;10494;50.868;4.180;2022-10-16T00:18:36;14.20;99.90
20670;DHT22;10494;50.868;4.180;2022-10-16T00:21:07;14.20;99.90
20670;DHT22;10494;50.868;4.180;2022-10-16T00:23:33;14.10;99.90
20670;DHT22;10494;50.868;4.180;2022-10-16T00:26:03;14.10;99.90
20670;DHT22;10494;50.868;4.180;2022-10-16T00:28:29;14.10;99.90
20670;DHT22;10494;50.868;4.180;2022-10-16T00:30:55;14.10;99.90
20670;DHT22;10494;50.868;4.180;2022-10-16T00:33:21;14.10;99.90
20670;DHT22;10494;50.868;4.180;2022-10-16T00:35:48;14.10;99.90
20670;DHT22;10494;50.868;4.180;2022-10-16T00:38:14;14.10;99.90
20670;DHT22;10494;50.868;4.180;2022-10-16T00:40:40;14.00;99.90
20670;DHT22;10494;50.868;4.180;2022-10-16T00:46:03;14.00;99.90
20670;DHT22;10494;50.868;4.180;2022-10-16T00:48:30;14.00;99.90
20670;DHT22;10494;50.868;4.180;2022-10-16T00:50:57;14.00;99.90
20670;DHT22;10494;50.868;4.180;2022-10-16T00:53:23;14.00;99.90
20670;DHT22;10494;50.868;4.180;2022-10-16T00:55:50;14.00;99.90
20670;DHT22;10494;50.868;4.180;2022-10-16T00:58:15;14.10;99.90
20670;DHT22;10494;50.868;4.180;2022-10-16T01:00:41;14.00;99.90
20670;DHT22;10494;50.868;4.180;2022-10-16T01:03:32;14.00;99.90
20670;DHT22;10494;50.868;4.180;2022-10-16T01:06:22;14.00;99.90
20670;DHT22;10494;50.868;4.180;2022-10-16T01:12:00;13.90;99.90
20670;DHT22;10494;50.868;4.180;2022-10-16T01:14:45;13.90;99.90
20670;DHT22;10494;50.868;4.180;2022-10-16T01:28:13;14.00;99.90
20670;DHT22;10494;50.868;4.180;2022-10-16T01:30:42;14.00;99.90
20670;DHT22;10494;50.868;4.180;2022-10-16T01:33:14;14.00;99.90
20670;DHT22;10494;50.868;4.180;2022-10-16T01:35:45;13.90;99.90
20670;DHT22;10494;50.868;4.180;2022-10-16T01:38:35;13.80;99.90
20670;DHT22;10494;50.868;4.180;2022-10-16T01:41:10;13.80;99.90
20670;DHT22;10494;50.868;4.180;2022-10-16T01:43:40;13.70;99.90
20670;DHT22;10494;50.868;4.180;2022-10-16T01:46:10;13.70;99.90
20670;DHT22;10494;50.868;4.180;2022-10-16T01:48:36;13.70;99.90
20670;DHT22;10494;50.868;4.180;2022-10-16T01:51:08;13.70;99.90
20670;DHT22;10494;50.868;4.180;2022-10-16T01:53:34;13.70;99.90
20670;DHT22;10494;50.868;4.180;2022-10-16T01:56:03;13.80;99.90
20670;DHT22;10494;50.868;4.180;2022-10-16T01:58:33;13.80;99.90
20670;DHT22;10494;50.868;4.180;2022-10-16T02:01:02;13.80;99.90
20670;DHT22;10494;50.868;4.180;2022-10-16T02:03:28;13.70;99.90
20670;DHT22;10494;50.868;4.180;2022-10-16T02:05:56;13.80;99.90
20670;DHT22;10494;50.868;4.180;2022-10-16T02:08:25;13.70;99.90
20670;DHT22;10494;50.868;4.180;2022-10-16T02:10:54;13.70;99.90
20670;DHT22;10494;50.868;4.180;2022-10-16T02:13:55;13.70;99.90
20670;DHT22;10494;50.868;4.180;2022-10-16T02:16:33;13.70;99.90
20670;DHT22;10494;50.868;4.180;2022-10-16T02:18:59;13.70;99.90
20670;DHT22;10494;50.868;4.180;2022-10-16T02:21:28;13.70;99.90
20670;DHT22;10494;50.868;4.180;2022-10-16T02:24:26;13.80;99.90
20670;DHT22;10494;50.868;4.180;2022-10-16T02:26:52;13.70;99.90
20670;DHT22;10494;50.868;4.180;2022-10-16T02:29:25;13.70;99.90
20670;DHT22;10494;50.868;4.180;2022-10-16T02:31:56;13.60;99.90
20670;DHT22;10494;50.868;4.180;2022-10-16T02:34:24;13.60;99.90
20670;DHT22;10494;50.868;4.180;2022-10-16T02:36:51;13.50;99.90
20670;DHT22;10494;50.868;4.180;2022-10-16T02:39:19;13.50;99.90
20670;DHT22;10494;50.868;4.180;2022-10-16T02:41:45;13.50;99.90
20670;DHT22;10494;50.868;4.180;2022-10-16T02:44:11;13.50;99.90
20670;DHT22;10494;50.868;4.180;2022-10-16T02:46:37;13.50;99.90
20670;DHT22;10494;50.868;4.180;2022-10-16T02:49:02;13.50;99.90
20670;DHT22;10494;50.868;4.180;2022-10-16T02:51:28;13.40;99.90
20670;DHT22;10494;50.868;4.180;2022-10-16T02:53:54;13.50;99.90
20670;DHT22;10494;50.868;4.180;2022-10-16T02:56:20;13.40;99.90
20670;DHT22;10494;50.868;4.180;2022-10-16T02:58:45;13.50;99.90
20670;DHT22;10494;50.868;4.180;2022-10-16T03:01:11;13.40;99.90
20670;DHT22;10494;50.868;4.180;2022-10-16T03:03:38;13.40;99.90
20670;DHT22;10494;50.868;4.180;2022-10-16T03:06:04;13.30;99.90
20670;DHT22;10494;50.868;4.180;2022-10-16T03:08:29;13.40;99.90
20670;DHT22;10494;50.868;4.180;2022-10-16T03:10:55;13.40;99.90
20670;DHT22;10494;50.868;4.180;2022-10-16T03:13:20;13.40;99.90
20670;DHT22;10494;50.868;4.180;2022-10-16T03:15:46;13.40;99.90
20670;DHT22;10494;50.868;4.180;2022-10-16T03:18:12;13.50;99.90
20670;DHT22;10494;50.868;4.180;2022-10-16T03:20:38;13.70;99.90
20670;DHT22;10494;50.868;4.180;2022-10-16T03:23:03;13.60;99.90
20670;DHT22;10494;50.868;4.180;2022-10-16T03:25:29;13.60;99.90
20670;DHT22;10494;50.868;4.180;2022-10-16T03:27:54;13.60;99.90
20670;DHT22;10494;50.868;4.180;2022-10-16T03:30:20;13.60;99.90
20670;DHT22;10494;50.868;4.180;2022-10-16T03:32:46;13.60;99.90
20670;DHT22;10494;50.868;4.180;2022-10-16T03:35:12;13.70;99.90
20670;DHT22;10494;50.868;4.180;2022-10-16T03:37:38;13.70;99.90
20670;DHT22;10494;50.868;4.180;2022-10-16T03:40:04;13.70;99.90
20670;DHT22;10494;50.868;4.180;2022-10-16T03:42:30;13.70;99.90
20670;DHT22;10494;50.868;4.180;2022-10-16T03:44:55;13.70;99.90
20670;DHT22;10494;50.868;4.180;2022-10-16T03:47:21;13.70;99.90
20670;DHT22;10494;50.868;4.180;2022-10-16T03:49:49;13.70;99.90
20670;DHT22;10494;50.868;4.180;2022-10-16T03:52:14;13.80;99.90
20670;DHT22;10494;50.868;4.180;2022-10-16T03:54:40;13.80;99.90
20670;DHT22;10494;50.868;4.180;2022-10-16T03:57:06;13.80;99.90
20670;DHT22;10494;50.868;4.180;2022-10-16T03:59:32;13.80;99.90
20670;DHT22;10494;50.868;4.180;2022-10-16T04:01:58;13.90;99.90
20670;DHT22;10494;50.868;4.180;2022-10-16T04:04:23;13.90;99.90
20670;DHT22;10494;50.868;4.180;2022-10-16T04:06:50;13.80;99.90
20670;DHT22;10494;50.868;4.180;2022-10-16T04:09:16;13.80;99.90
20670;DHT22;10494;50.868;4.180;2022-10-16T04:11:42;13.80;99.90
20670;DHT22;10494;50.868;4.180;2022-10-16T04:14:08;13.80;99.90
20670;DHT22;10494;50.868;4.180;2022-10-16T04:16:33;13.80;99.90
20670;DHT22;10494;50.868;4.180;2022-10-16T04:18:59;13.80;99.90
20670;DHT22;10494;50.868;4.180;2022-10-16T04:21:24;14.00;99.90
20670;DHT22;10494;50.868;4.180;2022-10-16T04:23:50;13.90;99.90
20670;DHT22;10494;50.868;4.180;2022-10-16T04:26:16;13.80;99.90
20670;DHT22;10494;50.868;4.180;2022-10-16T04:28:41;13.80;99.90
20670;DHT22;10494;50.868;4.180;2022-10-16T04:31:07;13.80;99.90
20670;DHT22;10494;50.868;4.180;2022-10-16T04:33:33;13.80;99.90
20670;DHT22;10494;50.868;4.180;2022-10-16T04:36:00;13.80;99.90
20670;DHT22;10494;50.868;4.180;2022-10-16T04:38:26;13.80;99.90
20670;DHT22;10494;50.868;4.180;2022-10-16T04:40:52;13.80;99.90
20670;DHT22;10494;50.868;4.180;2022-10-16T04:43:18;13.80;99.90
20670;DHT22;10494;50.868;4.180;2022-10-16T04:45:44;13.70;99.90
20670;DHT22;10494;50.868;4.180;2022-10-16T04:48:09;13.70;99.90
20670;DHT22;10494;50.868;4.180;2022-10-16T04:50:35;13.70;99.90
20670;DHT22;10494;50.868;4.180;2022-10-16T04:53:01;13.60;99.90
20670;DHT22;10494;50.868;4.180;2022-10-16T04:55:26;13.60;99.90
20670;DHT22;10494;50.868;4.180;2022-10-16T04:57:52;13.60;99.90
20670;DHT22;10494;50.868;4.180;2022-10-16T05:00:18;13.60;99.90
20670;DHT22;10494;50.868;4.180;2022-10-16T05:02:43;13.60;99.90
20670;DHT22;10494;50.868;4.180;2022-10-16T05:05:09;13.60;99.90
20670;DHT22;10494;50.868;4.180;2022-10-16T05:07:35;13.60;99.90
20670;DHT22;10494;50.868;4.180;2022-10-16T05:10:00;13.50;99.90
20670;DHT22;10494;50.868;4.180;2022-10-16T05:12:26;13.50;99.90
20670;DHT22;10494;50.868;4.180;2022-10-16T05:14:51;13.50;99.90
20670;DHT22;10494;50.868;4.180;2022-10-16T05:17:17;13.60;99.90
20670;DHT22;10494;50.868;4.180;2022-10-16T05:19:43;13.60;99.90
20670;DHT22;10494;50.868;4.180;2022-10-16T05:22:08;13.50;99.90
20670;DHT22;10494;50.868;4.180;2022-10-16T05:24:34;13.50;99.90
20670;DHT22;10494;50.868;4.180;2022-10-16T05:26:59;13.40;99.90
20670;DHT22;10494;50.868;4.180;2022-10-16T05:29:25;13.40;99.90
20670;DHT22;10494;50.868;4.180;2022-10-16T05:31:52;13.40;99.90
20670;DHT22;10494;50.868;4.180;2022-10-16T05:34:18;13.40;99.90
20670;DHT22;10494;50.868;4.180;2022-10-16T05:36:44;13.40;99.90
20670;DHT22;10494;50.868;4.180;2022-10-16T05:39:10;13.50;99.90
20670;DHT22;10494;50.868;4.180;2022-10-16T05:41:36;13.50;99.90
20670;DHT22;10494;50.868;4.180;2022-10-16T05:44:04;13.50;99.90
20670;DHT22;10494;50.868;4.180;2022-10-16T05:46:31;13.50;99.90
20670;DHT22;10494;50.868;4.180;2022-10-16T05:48:57;13.50;99.90
20670;DHT22;10494;50.868;4.180;2022-10-16T05:51:23;13.50;99.90
20670;DHT22;10494;50.868;4.180;2022-10-16T05:53:49;13.30;99.90
20670;DHT22;10494;50.868;4.180;2022-10-16T05:56:15;13.40;99.90
20670;DHT22;10494;50.868;4.180;2022-10-16T05:58:41;13.40;99.90
20670;DHT22;10494;50.868;4.180;2022-10-16T06:01:10;13.40;99.90
20670;DHT22;10494;50.868;4.180;2022-10-16T06:03:36;13.40;99.90
20670;DHT22;10494;50.868;4.180;2022-10-16T06:06:14;13.50;99.90
20670;DHT22;10494;50.868;4.180;2022-10-16T06:08:40;13.60;99.90
20670;DHT22;10494;50.868;4.180;2022-10-16T06:11:10;13.60;99.90
20670;DHT22;10494;50.868;4.180;2022-10-16T06:13:36;13.60;99.90
20670;DHT22;10494;50.868;4.180;2022-10-16T06:16:02;13.70;99.90
20670;DHT22;10494;50.868;4.180;2022-10-16T06:18:29;13.70;99.90
20670;DHT22;10494;50.868;4.180;2022-10-16T06:20:55;13.70;99.90
20670;DHT22;10494;50.868;4.180;2022-10-16T06:23:22;13.70;99.90
20670;DHT22;10494;50.868;4.180;2022-10-16T06:25:48;13.80;99.90
20670;DHT22;10494;50.868;4.180;2022-10-16T06:28:14;13.80;99.90
20670;DHT22;10494;50.868;4.180;2022-10-16T06:30:40;13.80;99.90
20670;DHT22;10494;50.868;4.180;2022-10-16T06:33:06;13.90;99.90
20670;DHT22;10494;50.868;4.180;2022-10-16T06:35:31;13.90;99.90
20670;DHT22;10494;50.868;4.180;2022-10-16T06:37:57;14.00;99.90
20670;DHT22;10494;50.868;4.180;2022-10-16T06:40:23;14.10;99.90
20670;DHT22;10494;50.868;4.180;2022-10-16T06:42:49;14.20;99.90
20670;DHT22;10494;50.868;4.180;2022-10-16T06:45:15;14.10;99.90
20670;DHT22;10494;50.868;4.180;2022-10-16T06:47:41;14.20;99.90
20670;DHT22;10494;50.868;4.180;2022-10-16T06:50:06;14.30;99.90
20670;DHT22;10494;50.868;4.180;2022-10-16T06:52:33;14.20;99.90
20670;DHT22;10494;50.868;4.180;2022-10-16T06:54:59;14.20;99.90
20670;DHT22;10494;50.868;4.180;2022-10-16T06:57:25;14.10;99.90
20670;DHT22;10494;50.868;4.180;2022-10-16T06:59:50;14.20;99.90
20670;DHT22;10494;50.868;4.180;2022-10-16T07:02:16;14.20;99.90
20670;DHT22;10494;50.868;4.180;2022-10-16T07:04:42;14.20;99.90
20670;DHT22;10494;50.868;4.180;2022-10-16T07:07:07;14.30;99.90
20670;DHT22;10494;50.868;4.180;2022-10-16T07:09:33;14.40;99.90
20670;DHT22;10494;50.868;4.180;2022-10-16T07:11:58;14.40;99.90
20670;DHT22;10494;50.868;4.180;2022-10-16T07:14:24;14.50;99.90
20670;DHT22;10494;50.868;4.180;2022-10-16T07:16:50;14.50;99.90
20670;DHT22;10494;50.868;4.180;2022-10-16T07:19:15;14.50;99.90
20670;DHT22;10494;50.868;4.180;2022-10-16T07:21:43;14.60;99.90
20670;DHT22;10494;50.868;4.180;2022-10-16T07:24:18;14.90;99.90
20670;DHT22;10494;50.868;4.180;2022-10-16T07:26:45;15.60;99.90
20670;DHT22;10494;50.868;4.180;2022-10-16T07:29:19;16.60;99.90
20670;DHT22;10494;50.868;4.180;2022-10-16T07:31:46;17.70;99.90
20670;DHT22;10494;50.868;4.180;2022-10-16T07:34:12;18.60;99.90
20670;DHT22;10494;50.868;4.180;2022-10-16T07:36:39;18.80;99.90
20670;DHT22;10494;50.868;4.180;2022-10-16T07:39:04;19.50;99.90
20670;DHT22;10494;50.868;4.180;2022-10-16T07:41:30;19.80;99.90
20670;DHT22;10494;50.868;4.180;2022-10-16T07:43:58;19.90;99.90
20670;DHT22;10494;50.868;4.180;2022-10-16T07:46:28;20.30;99.90
20670;DHT22;10494;50.868;4.180;2022-10-16T07:48:54;21.00;99.90
20670;DHT22;10494;50.868;4.180;2022-10-16T07:51:22;21.10;99.90
20670;DHT22;10494;50.868;4.180;2022-10-16T07:53:48;21.50;99.90
20670;DHT22;10494;50.868;4.180;2022-10-16T07:56:15;21.70;99.90
20670;DHT22;10494;50.868;4.180;2022-10-16T07:58:41;21.80;99.90
20670;DHT22;10494;50.868;4.180;2022-10-16T08:01:12;22.30;99.90
20670;DHT22;10494;50.868;4.180;2022-10-16T08:03:40;23.00;99.90
20670;DHT22;10494;50.868;4.180;2022-10-16T08:06:06;23.10;99.90
20670;DHT22;10494;50.868;4.180;2022-10-16T08:08:32;22.80;99.90
20670;DHT22;10494;50.868;4.180;2022-10-16T08:10:58;23.00;99.90
20670;DHT22;10494;50.868;4.180;2022-10-16T08:13:23;22.80;99.90
20670;DHT22;10494;50.868;4.180;2022-10-16T08:15:49;22.70;99.90
20670;DHT22;10494;50.868;4.180;2022-10-16T08:18:15;22.90;99.90
20670;DHT22;10494;50.868;4.180;2022-10-16T08:20:41;23.00;99.90
20670;DHT22;10494;50.868;4.180;2022-10-16T08:23:07;22.90;99.90
20670;DHT22;10494;50.868;4.180;2022-10-16T08:25:35;22.30;99.90
20670;DHT22;10494;50.868;4.180;2022-10-16T08:28:03;23.00;99.90
20670;DHT22;10494;50.868;4.180;2022-10-16T08:30:30;23.40;99.90
20670;DHT22;10494;50.868;4.180;2022-10-16T08:32:55;23.40;99.90
20670;DHT22;10494;50.868;4.180;2022-10-16T08:35:21;23.90;99.90
20670;DHT22;10494;50.868;4.180;2022-10-16T08:37:46;23.90;99.90
20670;DHT22;10494;50.868;4.180;2022-10-16T08:40:33;24.00;99.90
20670;DHT22;10494;50.868;4.180;2022-10-16T08:48:29;24.70;99.90
20670;DHT22;10494;50.868;4.180;2022-10-16T08:50:55;24.70;99.90
20670;DHT22;10494;50.868;4.180;2022-10-16T08:53:30;24.50;99.90
20670;DHT22;10494;50.868;4.180;2022-10-16T08:55:56;24.30;99.90
20670;DHT22;10494;50.868;4.180;2022-10-16T08:58:27;24.30;99.90
20670;DHT22;10494;50.868;4.180;2022-10-16T09:00:56;24.70;99.90
20670;DHT22;10494;50.868;4.180;2022-10-16T09:08:58;24.90;99.90
20670;DHT22;10494;50.868;4.180;2022-10-16T09:11:44;25.10;99.90
20670;DHT22;10494;50.868;4.180;2022-10-16T09:16:57;25.60;99.90
20670;DHT22;10494;50.868;4.180;2022-10-16T09:21:54;25.70;99.90
20670;DHT22;10494;50.868;4.180;2022-10-16T09:24:24;26.00;99.90
20670;DHT22;10494;50.868;4.180;2022-10-16T09:26:51;26.40;99.90
20670;DHT22;10494;50.868;4.180;2022-10-16T09:29:18;27.20;99.90
20670;DHT22;10494;50.868;4.180;2022-10-16T09:31:46;27.30;99.90
20670;DHT22;10494;50.868;4.180;2022-10-16T09:34:33;27.10;99.90
20670;DHT22;10494;50.868;4.180;2022-10-16T09:37:01;27.00;99.90
20670;DHT22;10494;50.868;4.180;2022-10-16T09:39:28;26.10;99.90
20670;DHT22;10494;50.868;4.180;2022-10-16T09:41:55;26.10;99.90
20670;DHT22;10494;50.868;4.180;2022-10-16T09:44:30;25.80;99.90
20670;DHT22;10494;50.868;4.180;2022-10-16T09:47:27;26.30;99.90
20670;DHT22;10494;50.868;4.180;2022-10-16T09:49:58;27.00;99.90
20670;DHT22;10494;50.868;4.180;2022-10-16T09:52:26;26.70;99.90
20670;DHT22;10494;50.868;4.180;2022-10-16T09:57:20;26.30;99.90
20670;DHT22;10494;50.868;4.180;2022-10-16T09:59:52;26.00;99.90
20670;DHT22;10494;50.868;4.180;2022-10-16T10:02:23;26.40;99.90
20670;DHT22;10494;50.868;4.180;2022-10-16T10:04:53;26.50;99.90
20670;DHT22;10494;50.868;4.180;2022-10-16T10:07:29;25.90;99.90
20670;DHT22;10494;50.868;4.180;2022-10-16T10:09:57;25.90;99.90
20670;DHT22;10494;50.868;4.180;2022-10-16T10:12:30;26.10;99.90
20670;DHT22;10494;50.868;4.180;2022-10-16T10:15:12;26.20;99.90
20670;DHT22;10494;50.868;4.180;2022-10-16T10:17:48;26.10;99.90
20670;DHT22;10494;50.868;4.180;2022-10-16T10:20:31;26.40;99.90
20670;DHT22;10494;50.868;4.180;2022-10-16T10:23:13;25.70;99.90
20670;DHT22;10494;50.868;4.180;2022-10-16T10:26:20;25.30;99.90
20670;DHT22;10494;50.868;4.180;2022-10-16T10:29:10;25.80;99.90
20670;DHT22;10494;50.868;4.180;2022-10-16T10:31:47;25.70;99.90
20670;DHT22;10494;50.868;4.180;2022-10-16T10:37:37;26.10;99.90
20670;DHT22;10494;50.868;4.180;2022-10-16T10:40:23;26.50;99.90
20670;DHT22;10494;50.868;4.180;2022-10-16T10:45:46;26.70;99.90
20670;DHT22;10494;50.868;4.180;2022-10-16T10:51:05;25.10;99.90
20670;DHT22;10494;50.868;4.180;2022-10-16T10:53:43;24.90;99.90
20670;DHT22;10494;50.868;4.180;2022-10-16T10:56:44;24.70;99.90
20670;DHT22;10494;50.868;4.180;2022-10-16T11:02:11;24.20;99.90
20670;DHT22;10494;50.868;4.180;2022-10-16T11:07:35;24.30;99.90
20670;DHT22;10494;50.868;4.180;2022-10-16T11:13:34;23.50;99.90
20670;DHT22;10494;50.868;4.180;2022-10-16T11:16:35;23.20;99.90
20670;DHT22;10494;50.868;4.180;2022-10-16T11:25:13;23.00;99.90
20670;DHT22;10494;50.868;4.180;2022-10-16T11:27:44;23.00;99.90
20670;DHT22;10494;50.868;4.180;2022-10-16T11:30:19;22.70;99.90
20670;DHT22;10494;50.868;4.180;2022-10-16T11:33:08;22.50;99.90
20670;DHT22;10494;50.868;4.180;2022-10-16T11:38:23;22.10;99.90
20670;DHT22;10494;50.868;4.180;2022-10-16T11:40:54;22.00;99.90
20670;DHT22;10494;50.868;4.180;2022-10-16T11:45:58;21.90;99.90
20670;DHT22;10494;50.868;4.180;2022-10-16T11:48:50;21.80;99.90
20670;DHT22;10494;50.868;4.180;2022-10-16T11:51:38;21.50;99.90
20670;DHT22;10494;50.868;4.180;2022-10-16T11:54:17;21.20;99.90
20670;DHT22;10494;50.868;4.180;2022-10-16T11:56:50;20.80;99.90
20670;DHT22;10494;50.868;4.180;2022-10-16T12:01:56;20.70;99.90
20670;DHT22;10494;50.868;4.180;2022-10-16T12:07:13;20.70;99.90
20670;DHT22;10494;50.868;4.180;2022-10-16T12:09:40;20.80;99.90
20670;DHT22;10494;50.868;4.180;2022-10-16T12:12:28;20.90;99.90
20670;DHT22;10494;50.868;4.180;2022-10-16T12:15:27;21.10;99.90
20670;DHT22;10494;50.868;4.180;2022-10-16T12:17:55;21.30;99.90
20670;DHT22;10494;50.868;4.180;2022-10-16T12:20:30;21.40;99.90
20670;DHT22;10494;50.868;4.180;2022-10-16T12:23:02;21.00;99.90
20670;DHT22;10494;50.868;4.180;2022-10-16T12:25:36;20.90;99.90
20670;DHT22;10494;50.868;4.180;2022-10-16T12:30:42;21.00;99.90
20670;DHT22;10494;50.868;4.180;2022-10-16T12:35:53;21.10;99.90
20670;DHT22;10494;50.868;4.180;2022-10-16T12:38:21;21.00;99.90
20670;DHT22;10494;50.868;4.180;2022-10-16T12:41:02;21.00;99.90
20670;DHT22;10494;50.868;4.180;2022-10-16T12:43:36;21.00;99.90
20670;DHT22;10494;50.868;4.180;2022-10-16T12:46:33;20.80;99.90
20670;DHT22;10494;50.868;4.180;2022-10-16T12:51:37;20.50;99.90
20670;DHT22;10494;50.868;4.180;2022-10-16T12:54:15;20.30;99.90
20670;DHT22;10494;50.868;4.180;2022-10-16T13:00:03;20.20;99.90
20670;DHT22;10494;50.868;4.180;2022-10-16T13:19:16;20.60;99.90
20670;DHT22;10494;50.868;4.180;2022-10-16T13:22:15;20.70;99.90
20670;DHT22;10494;50.868;4.180;2022-10-16T13:30:26;20.00;99.90
20670;DHT22;10494;50.868;4.180;2022-10-16T13:33:06;19.80;99.90
20670;DHT22;10494;50.868;4.180;2022-10-16T13:35:34;19.90;99.90
20670;DHT22;10494;50.868;4.180;2022-10-16T13:38:14;19.70;99.90
20670;DHT22;10494;50.868;4.180;2022-10-16T13:41:12;19.50;99.90
20670;DHT22;10494;50.868;4.180;2022-10-16T13:43:45;19.40;99.90
20670;DHT22;10494;50.868;4.180;2022-10-16T13:46:23;19.70;99.90
20670;DHT22;10494;50.868;4.180;2022-10-16T13:49:01;19.80;99.90
20670;DHT22;10494;50.868;4.180;2022-10-16T13:51:29;19.80;99.90
20670;DHT22;10494;50.868;4.180;2022-10-16T13:53:55;19.80;99.90
20670;DHT22;10494;50.868;4.180;2022-10-16T13:56:24;19.90;99.90
20670;DHT22;10494;50.868;4.180;2022-10-16T13:59:05;19.80;99.90
20670;DHT22;10494;50.868;4.180;2022-10-16T14:01:44;19.90;99.90
20670;DHT22;10494;50.868;4.180;2022-10-16T14:04:11;19.90;99.90
20670;DHT22;10494;50.868;4.180;2022-10-16T14:06:45;19.80;99.90
20670;DHT22;10494;50.868;4.180;2022-10-16T14:09:24;19.80;99.90
20670;DHT22;10494;50.868;4.180;2022-10-16T14:12:00;19.60;99.90
20670;DHT22;10494;50.868;4.180;2022-10-16T14:14:50;19.60;99.90
20670;DHT22;10494;50.868;4.180;2022-10-16T14:17:22;19.50;99.90
20670;DHT22;10494;50.868;4.180;2022-10-16T14:19:49;19.40;99.90
20670;DHT22;10494;50.868;4.180;2022-10-16T14:22:37;19.50;99.90
20670;DHT22;10494;50.868;4.180;2022-10-16T14:27:44;19.60;99.90
20670;DHT22;10494;50.868;4.180;2022-10-16T14:30:14;19.60;99.90
20670;DHT22;10494;50.868;4.180;2022-10-16T14:32:42;19.60;99.90
20670;DHT22;10494;50.868;4.180;2022-10-16T14:35:31;19.70;99.90
20670;DHT22;10494;50.868;4.180;2022-10-16T14:37:59;19.80;99.90
20670;DHT22;10494;50.868;4.180;2022-10-16T14:40:30;19.70;99.90
20670;DHT22;10494;50.868;4.180;2022-10-16T14:42:56;19.50;99.90
20670;DHT22;10494;50.868;4.180;2022-10-16T14:45:26;19.40;99.90
20670;DHT22;10494;50.868;4.180;2022-10-16T14:47:54;19.40;99.90
20670;DHT22;10494;50.868;4.180;2022-10-16T14:50:21;19.40;99.90
20670;DHT22;10494;50.868;4.180;2022-10-16T14:52:47;19.30;99.90
20670;DHT22;10494;50.868;4.180;2022-10-16T14:55:14;19.20;99.90
20670;DHT22;10494;50.868;4.180;2022-10-16T14:57:39;19.40;99.90
20670;DHT22;10494;50.868;4.180;2022-10-16T15:02:42;19.40;99.90
20670;DHT22;10494;50.868;4.180;2022-10-16T15:05:25;19.30;99.90
20670;DHT22;10494;50.868;4.180;2022-10-16T15:07:53;19.70;99.90
20670;DHT22;10494;50.868;4.180;2022-10-16T15:10:20;19.80;99.90
20670;DHT22;10494;50.868;4.180;2022-10-16T15:12:46;19.70;99.90
20670;DHT22;10494;50.868;4.180;2022-10-16T15:15:23;19.60;99.90
20670;DHT22;10494;50.868;4.180;2022-10-16T15:17:51;19.70;99.90
20670;DHT22;10494;50.868;4.180;2022-10-16T15:20:23;19.70;99.90
20670;DHT22;10494;50.868;4.180;2022-10-16T15:22:49;19.80;99.90
20670;DHT22;10494;50.868;4.180;2022-10-16T15:28:00;20.00;99.90
20670;DHT22;10494;50.868;4.180;2022-10-16T15:30:26;20.10;99.90
20670;DHT22;10494;50.868;4.180;2022-10-16T15:32:52;20.00;99.90
20670;DHT22;10494;50.868;4.180;2022-10-16T15:35:18;19.90;99.90
20670;DHT22;10494;50.868;4.180;2022-10-16T15:37:44;19.90;99.90
20670;DHT22;10494;50.868;4.180;2022-10-16T15:40:10;19.80;99.90
20670;DHT22;10494;50.868;4.180;2022-10-16T15:42:36;19.90;99.90
20670;DHT22;10494;50.868;4.180;2022-10-16T15:45:02;19.90;99.90
20670;DHT22;10494;50.868;4.180;2022-10-16T15:47:28;19.80;99.90
20670;DHT22;10494;50.868;4.180;2022-10-16T15:49:54;19.60;99.90
20670;DHT22;10494;50.868;4.180;2022-10-16T15:52:19;19.60;99.90
20670;DHT22;10494;50.868;4.180;2022-10-16T15:54:45;19.60;99.90
20670;DHT22;10494;50.868;4.180;2022-10-16T15:57:10;19.60;99.90
20670;DHT22;10494;50.868;4.180;2022-10-16T15:59:36;19.50;99.90
20670;DHT22;10494;50.868;4.180;2022-10-16T16:02:01;19.50;99.90
20670;DHT22;10494;50.868;4.180;2022-10-16T16:04:29;19.50;99.90
20670;DHT22;10494;50.868;4.180;2022-10-16T16:06:55;19.50;99.90
20670;DHT22;10494;50.868;4.180;2022-10-16T16:09:21;19.30;99.90
20670;DHT22;10494;50.868;4.180;2022-10-16T16:11:46;19.30;99.90
20670;DHT22;10494;50.868;4.180;2022-10-16T16:14:13;19.00;99.90
20670;DHT22;10494;50.868;4.180;2022-10-16T16:16:39;19.00;99.90
20670;DHT22;10494;50.868;4.180;2022-10-16T16:19:05;19.00;99.90
20670;DHT22;10494;50.868;4.180;2022-10-16T16:21:32;19.10;99.90
20670;DHT22;10494;50.868;4.180;2022-10-16T16:23:58;19.10;99.90
20670;DHT22;10494;50.868;4.180;2022-10-16T16:28:52;19.00;99.90
20670;DHT22;10494;50.868;4.180;2022-10-16T16:31:19;18.80;99.90
20670;DHT22;10494;50.868;4.180;2022-10-16T16:33:45;18.80;99.90
20670;DHT22;10494;50.868;4.180;2022-10-16T16:36:11;18.70;99.90
20670;DHT22;10494;50.868;4.180;2022-10-16T16:38:36;18.70;99.90
20670;DHT22;10494;50.868;4.180;2022-10-16T16:41:16;18.60;99.90
20670;DHT22;10494;50.868;4.180;2022-10-16T16:43:42;18.30;99.90
20670;DHT22;10494;50.868;4.180;2022-10-16T16:46:08;18.30;99.90
20670;DHT22;10494;50.868;4.180;2022-10-16T16:48:33;18.30;99.90
20670;DHT22;10494;50.868;4.180;2022-10-16T16:51:06;18.40;99.90
20670;DHT22;10494;50.868;4.180;2022-10-16T16:53:36;18.40;99.90
20670;DHT22;10494;50.868;4.180;2022-10-16T16:56:03;18.40;99.90
20670;DHT22;10494;50.868;4.180;2022-10-16T16:58:29;18.40;99.90
20670;DHT22;10494;50.868;4.180;2022-10-16T17:00:55;18.30;99.90
20670;DHT22;10494;50.868;4.180;2022-10-16T17:03:21;18.40;99.90
20670;DHT22;10494;50.868;4.180;2022-10-16T17:05:56;18.20;99.90
20670;DHT22;10494;50.868;4.180;2022-10-16T17:08:21;18.00;99.90
20670;DHT22;10494;50.868;4.180;2022-10-16T17:10:47;17.90;99.90
20670;DHT22;10494;50.868;4.180;2022-10-16T17:13:18;17.70;99.90
20670;DHT22;10494;50.868;4.180;2022-10-16T17:15:48;17.50;99.90
20670;DHT22;10494;50.868;4.180;2022-10-16T17:18:14;17.40;99.90
20670;DHT22;10494;50.868;4.180;2022-10-16T17:20:39;17.20;99.90
20670;DHT22;10494;50.868;4.180;2022-10-16T17:23:05;17.10;99.90
20670;DHT22;10494;50.868;4.180;2022-10-16T17:25:31;17.00;99.90
20670;DHT22;10494;50.868;4.180;2022-10-16T17:27:57;16.90;99.90
20670;DHT22;10494;50.868;4.180;2022-10-16T17:30:23;16.60;99.90
20670;DHT22;10494;50.868;4.180;2022-10-16T17:32:49;16.60;99.90
20670;DHT22;10494;50.868;4.180;2022-10-16T17:35:15;16.50;99.90
20670;DHT22;10494;50.868;4.180;2022-10-16T17:37:42;16.50;99.90
20670;DHT22;10494;50.868;4.180;2022-10-16T17:40:08;16.50;99.90